createdAt,value
2023-04-17T00:03:08.808Z,1014.688
2023-04-17T00:23:07.754Z,1014.644
2023-04-17T00:43:07.580Z,1014.561
2023-04-17T01:03:09.046Z,1014.524
2023-04-17T01:23:07.968Z,1014.546
2023-04-17T01:43:07.776Z,1014.577
2023-04-17T02:03:08.911Z,1014.756
2023-04-17T02:23:07.868Z,1014.759
2023-04-17T02:43:07.693Z,1014.722
2023-04-17T03:03:09.105Z,1014.748
2023-04-17T03:23:08.264Z,1014.862
2023-04-17T03:43:07.990Z,1014.907
2023-04-17T04:03:09.497Z,1014.948
2023-04-17T04:23:07.709Z,1014.985
2023-04-17T04:43:07.765Z,1015.114
2023-04-17T05:03:09.403Z,1015.179
2023-04-17T05:23:07.408Z,1015.483
2023-04-17T05:43:07.173Z,1015.644
2023-04-17T06:03:09.771Z,1015.787
2023-04-17T06:23:07.568Z,1015.974
2023-04-17T06:43:07.374Z,1016.119
2023-04-17T07:03:08.622Z,1016.278
2023-04-17T07:23:07.632Z,1016.4
2023-04-17T07:43:07.539Z,1016.498
2023-04-17T08:03:09.382Z,1016.485
2023-04-17T08:23:07.360Z,1016.685
2023-04-17T08:43:07.198Z,1016.823
2023-04-17T09:03:09.872Z,1016.924
2023-04-17T09:23:07.842Z,1016.979
2023-04-17T09:43:11.052Z,1016.883
2023-04-17T10:03:10.149Z,1016.872
2023-04-17T10:23:08.010Z,1016.727
2023-04-17T10:43:07.836Z,1016.587
2023-04-17T11:03:09.109Z,1016.561
2023-04-17T11:23:08.006Z,1016.547
2023-04-17T11:43:07.983Z,1016.522
2023-04-17T12:03:09.451Z,1016.459
2023-04-17T12:23:07.260Z,1016.48
2023-04-17T12:43:07.257Z,1016.488
2023-04-17T13:03:09.757Z,1016.433
2023-04-17T13:23:07.562Z,1016.316
2023-04-17T13:43:07.441Z,1016.282
2023-04-17T14:03:08.960Z,1016.038
2023-04-17T14:23:07.896Z,1015.919
2023-04-17T14:43:07.815Z,1015.846
2023-04-17T15:03:09.343Z,1015.609
2023-04-17T15:23:07.521Z,1015.481
2023-04-17T15:43:07.510Z,1015.323
2023-04-17T16:03:09.011Z,1015.315
2023-04-17T16:23:08.053Z,1015.292
2023-04-17T16:43:08.144Z,1015.275
2023-04-17T17:03:09.815Z,1015.208
2023-04-17T17:23:07.812Z,1015.226
2023-04-17T17:43:07.890Z,1015.317
2023-04-17T18:03:09.561Z,1015.355
2023-04-17T18:23:07.666Z,1015.488
2023-04-17T18:43:07.778Z,1015.643
2023-04-17T19:03:08.968Z,1015.937
2023-04-17T19:23:07.788Z,1015.96
2023-04-17T19:43:07.723Z,1016.001
2023-04-17T20:03:09.074Z,1015.985
2023-04-17T20:23:07.970Z,1016.11
2023-04-17T20:43:07.958Z,1016.197
2023-04-17T21:03:09.340Z,1016.24
2023-04-17T21:23:07.313Z,1016.279
2023-04-17T21:43:07.423Z,1016.464
2023-04-17T22:03:09.067Z,1016.755
2023-04-17T22:23:07.977Z,1016.679
2023-04-17T22:43:07.675Z,1016.804
2023-04-17T23:03:09.136Z,1016.886
2023-04-17T23:23:08.109Z,1016.889
2023-04-17T23:43:07.881Z,1016.839
